sensor_id;sensor_type;location;lat;lon;timestamp;P1;durP1;ratioP1;P2;durP2;ratioP2
64682;SDS011;51107;47.652;19.016;2022-09-12T00:01:20;3.50;;;1.00;;
64682;SDS011;51107;47.652;19.016;2022-09-12T00:03:51;2.33;;;0.77;;
64682;SDS011;51107;47.652;19.016;2022-09-12T00:06:24;0.65;;;0.50;;
64682;SDS011;51107;47.652;19.016;2022-09-12T00:09:02;0.50;;;0.50;;
64682;SDS011;51107;47.652;19.016;2022-09-12T00:11:37;0.98;;;0.88;;
64682;SDS011;51107;47.652;19.016;2022-09-12T00:14:07;0.47;;;0.47;;
64682;SDS011;51107;47.652;19.016;2022-09-12T00:16:38;0.65;;;0.60;;
64682;SDS011;51107;47.652;19.016;2022-09-12T00:19:07;0.77;;;0.50;;
64682;SDS011;51107;47.652;19.016;2022-09-12T00:21:37;0.65;;;0.65;;
64682;SDS011;51107;47.652;19.016;2022-09-12T00:24:06;0.50;;;0.45;;
64682;SDS011;51107;47.652;19.016;2022-09-12T00:26:36;0.65;;;0.65;;
64682;SDS011;51107;47.652;19.016;2022-09-12T00:29:04;1.15;;;0.80;;
64682;SDS011;51107;47.652;19.016;2022-09-12T00:31:32;0.70;;;0.70;;
64682;SDS011;51107;47.652;19.016;2022-09-12T00:34:01;1.00;;;0.70;;
64682;SDS011;51107;47.652;19.016;2022-09-12T00:36:29;1.12;;;0.68;;
64682;SDS011;51107;47.652;19.016;2022-09-12T00:38:58;0.40;;;0.40;;
64682;SDS011;51107;47.652;19.016;2022-09-12T00:41:28;1.30;;;0.80;;
64682;SDS011;51107;47.652;19.016;2022-09-12T00:44:38;0.60;;;0.60;;
64682;SDS011;51107;47.652;19.016;2022-09-12T00:46:56;0.43;;;0.43;;
64682;SDS011;51107;47.652;19.016;2022-09-12T00:49:48;1.10;;;0.80;;
64682;SDS011;51107;47.652;19.016;2022-09-12T00:52:27;1.25;;;0.60;;
64682;SDS011;51107;47.652;19.016;2022-09-12T01:03:06;0.45;;;0.40;;
64682;SDS011;51107;47.652;19.016;2022-09-12T01:05:39;0.60;;;0.60;;
64682;SDS011;51107;47.652;19.016;2022-09-12T01:08:11;0.95;;;0.73;;
64682;SDS011;51107;47.652;19.016;2022-09-12T01:10:40;0.80;;;0.80;;
64682;SDS011;51107;47.652;19.016;2022-09-12T01:13:09;0.85;;;0.60;;
64682;SDS011;51107;47.652;19.016;2022-09-12T01:15:37;0.68;;;0.60;;
64682;SDS011;51107;47.652;19.016;2022-09-12T01:23:52;0.50;;;0.37;;
64682;SDS011;51107;47.652;19.016;2022-09-12T01:35:25;1.35;;;0.50;;
64682;SDS011;51107;47.652;19.016;2022-09-12T01:43:43;0.50;;;0.50;;
64682;SDS011;51107;47.652;19.016;2022-09-12T01:46:16;0.65;;;0.50;;
64682;SDS011;51107;47.652;19.016;2022-09-12T01:49:07;1.23;;;0.70;;
64682;SDS011;51107;47.652;19.016;2022-09-12T01:51:44;1.02;;;0.93;;
64682;SDS011;51107;47.652;19.016;2022-09-12T01:54:18;0.43;;;0.40;;
64682;SDS011;51107;47.652;19.016;2022-09-12T01:56:57;0.47;;;0.40;;
64682;SDS011;51107;47.652;19.016;2022-09-12T01:59:38;0.37;;;0.30;;
64682;SDS011;51107;47.652;19.016;2022-09-12T02:02:11;0.43;;;0.43;;
64682;SDS011;51107;47.652;19.016;2022-09-12T02:04:55;0.50;;;0.50;;
64682;SDS011;51107;47.652;19.016;2022-09-12T02:07:31;0.32;;;0.30;;
64682;SDS011;51107;47.652;19.016;2022-09-12T02:12:38;0.68;;;0.68;;
64682;SDS011;51107;47.652;19.016;2022-09-12T02:15:11;0.47;;;0.47;;
64682;SDS011;51107;47.652;19.016;2022-09-12T02:17:42;0.95;;;0.85;;
64682;SDS011;51107;47.652;19.016;2022-09-12T02:23:17;0.57;;;0.57;;
64682;SDS011;51107;47.652;19.016;2022-09-12T02:25:51;0.70;;;0.50;;
64682;SDS011;51107;47.652;19.016;2022-09-12T02:28:25;0.50;;;0.50;;
64682;SDS011;51107;47.652;19.016;2022-09-12T02:33:48;1.10;;;0.50;;
64682;SDS011;51107;47.652;19.016;2022-09-12T02:39:17;1.00;;;0.77;;
64682;SDS011;51107;47.652;19.016;2022-09-12T02:41:51;1.25;;;0.77;;
64682;SDS011;51107;47.652;19.016;2022-09-12T02:44:22;0.62;;;0.62;;
64682;SDS011;51107;47.652;19.016;2022-09-12T02:46:54;0.70;;;0.70;;
64682;SDS011;51107;47.652;19.016;2022-09-12T02:49:29;1.83;;;0.50;;
64682;SDS011;51107;47.652;19.016;2022-09-12T02:51:58;0.90;;;0.60;;
64682;SDS011;51107;47.652;19.016;2022-09-12T02:54:27;1.00;;;0.70;;
64682;SDS011;51107;47.652;19.016;2022-09-12T02:56:58;0.85;;;0.60;;
64682;SDS011;51107;47.652;19.016;2022-09-12T02:59:26;1.02;;;0.90;;
64682;SDS011;51107;47.652;19.016;2022-09-12T03:10:17;0.55;;;0.50;;
64682;SDS011;51107;47.652;19.016;2022-09-12T03:21:22;1.95;;;0.90;;
64682;SDS011;51107;47.652;19.016;2022-09-12T03:26:52;1.25;;;0.95;;
64682;SDS011;51107;47.652;19.016;2022-09-12T03:29:27;1.08;;;0.82;;
64682;SDS011;51107;47.652;19.016;2022-09-12T03:31:57;1.52;;;0.95;;
64682;SDS011;51107;47.652;19.016;2022-09-12T03:34:26;1.00;;;0.85;;
64682;SDS011;51107;47.652;19.016;2022-09-12T03:36:55;1.50;;;1.02;;
64682;SDS011;51107;47.652;19.016;2022-09-12T03:39:23;1.65;;;1.20;;
64682;SDS011;51107;47.652;19.016;2022-09-12T03:41:53;1.45;;;0.90;;
64682;SDS011;51107;47.652;19.016;2022-09-12T03:44:22;1.08;;;0.82;;
64682;SDS011;51107;47.652;19.016;2022-09-12T03:46:51;1.00;;;0.90;;
64682;SDS011;51107;47.652;19.016;2022-09-12T03:49:19;0.60;;;0.60;;
64682;SDS011;51107;47.652;19.016;2022-09-12T03:51:47;1.00;;;0.93;;
64682;SDS011;51107;47.652;19.016;2022-09-12T03:54:16;1.00;;;0.85;;
64682;SDS011;51107;47.652;19.016;2022-09-12T03:56:44;1.08;;;0.73;;
64682;SDS011;51107;47.652;19.016;2022-09-12T03:59:12;1.48;;;0.93;;
64682;SDS011;51107;47.652;19.016;2022-09-12T04:01:40;1.45;;;1.00;;
64682;SDS011;51107;47.652;19.016;2022-09-12T04:04:09;0.95;;;0.70;;
64682;SDS011;51107;47.652;19.016;2022-09-12T04:06:37;1.05;;;0.80;;
64682;SDS011;51107;47.652;19.016;2022-09-12T04:09:05;3.28;;;1.00;;
64682;SDS011;51107;47.652;19.016;2022-09-12T04:11:34;4.80;;;1.20;;
64682;SDS011;51107;47.652;19.016;2022-09-12T04:14:02;8.05;;;0.70;;
64682;SDS011;51107;47.652;19.016;2022-09-12T04:16:30;0.75;;;0.65;;
64682;SDS011;51107;47.652;19.016;2022-09-12T04:18:59;0.95;;;0.68;;
64682;SDS011;51107;47.652;19.016;2022-09-12T04:21:27;1.08;;;0.93;;
64682;SDS011;51107;47.652;19.016;2022-09-12T04:23:56;0.95;;;0.85;;
64682;SDS011;51107;47.652;19.016;2022-09-12T04:26:24;0.93;;;0.80;;
64682;SDS011;51107;47.652;19.016;2022-09-12T04:28:52;1.33;;;0.80;;
64682;SDS011;51107;47.652;19.016;2022-09-12T04:31:27;1.75;;;1.05;;
64682;SDS011;51107;47.652;19.016;2022-09-12T04:33:56;0.73;;;0.70;;
64682;SDS011;51107;47.652;19.016;2022-09-12T04:36:26;1.77;;;0.80;;
64682;SDS011;51107;47.652;19.016;2022-09-12T04:38:55;1.10;;;0.90;;
64682;SDS011;51107;47.652;19.016;2022-09-12T04:41:25;0.60;;;0.57;;
64682;SDS011;51107;47.652;19.016;2022-09-12T04:43:59;0.82;;;0.75;;
64682;SDS011;51107;47.652;19.016;2022-09-12T04:46:30;2.50;;;0.77;;
64682;SDS011;51107;47.652;19.016;2022-09-12T04:49:01;1.90;;;0.90;;
64682;SDS011;51107;47.652;19.016;2022-09-12T04:51:30;0.75;;;0.75;;
64682;SDS011;51107;47.652;19.016;2022-09-12T04:54:12;1.65;;;0.95;;
64682;SDS011;51107;47.652;19.016;2022-09-12T04:56:43;1.00;;;0.62;;
64682;SDS011;51107;47.652;19.016;2022-09-12T04:59:14;1.08;;;0.65;;
64682;SDS011;51107;47.652;19.016;2022-09-12T05:01:44;1.02;;;0.80;;
64682;SDS011;51107;47.652;19.016;2022-09-12T05:04:13;0.65;;;0.65;;
64682;SDS011;51107;47.652;19.016;2022-09-12T05:06:41;1.20;;;0.77;;
64682;SDS011;51107;47.652;19.016;2022-09-12T05:09:10;1.42;;;0.90;;
64682;SDS011;51107;47.652;19.016;2022-09-12T05:11:40;0.80;;;0.75;;
64682;SDS011;51107;47.652;19.016;2022-09-12T05:14:30;1.23;;;0.80;;
64682;SDS011;51107;47.652;19.016;2022-09-12T05:16:59;0.73;;;0.60;;
64682;SDS011;51107;47.652;19.016;2022-09-12T05:19:29;1.00;;;0.90;;
64682;SDS011;51107;47.652;19.016;2022-09-12T05:21:58;3.70;;;0.90;;
64682;SDS011;51107;47.652;19.016;2022-09-12T05:24:26;0.73;;;0.73;;
64682;SDS011;51107;47.652;19.016;2022-09-12T05:26:54;0.70;;;0.60;;
64682;SDS011;51107;47.652;19.016;2022-09-12T05:29:23;1.77;;;0.68;;
64682;SDS011;51107;47.652;19.016;2022-09-12T05:31:52;0.95;;;0.70;;
64682;SDS011;51107;47.652;19.016;2022-09-12T05:34:20;1.05;;;0.65;;
64682;SDS011;51107;47.652;19.016;2022-09-12T05:36:49;0.75;;;0.68;;
64682;SDS011;51107;47.652;19.016;2022-09-12T05:39:17;0.30;;;0.30;;
64682;SDS011;51107;47.652;19.016;2022-09-12T05:41:45;0.50;;;0.50;;
64682;SDS011;51107;47.652;19.016;2022-09-12T05:44:14;0.75;;;0.60;;
64682;SDS011;51107;47.652;19.016;2022-09-12T05:46:43;1.25;;;0.52;;
64682;SDS011;51107;47.652;19.016;2022-09-12T05:49:13;0.50;;;0.50;;
64682;SDS011;51107;47.652;19.016;2022-09-12T05:51:43;1.48;;;1.10;;
64682;SDS011;51107;47.652;19.016;2022-09-12T05:54:13;1.42;;;1.08;;
64682;SDS011;51107;47.652;19.016;2022-09-12T05:56:46;1.95;;;1.00;;
64682;SDS011;51107;47.652;19.016;2022-09-12T05:59:20;0.82;;;0.82;;
64682;SDS011;51107;47.652;19.016;2022-09-12T06:01:48;0.88;;;0.88;;
64682;SDS011;51107;47.652;19.016;2022-09-12T06:04:17;1.33;;;0.90;;
64682;SDS011;51107;47.652;19.016;2022-09-12T06:06:45;2.45;;;0.90;;
64682;SDS011;51107;47.652;19.016;2022-09-12T06:09:14;4.20;;;1.08;;
64682;SDS011;51107;47.652;19.016;2022-09-12T06:11:44;1.15;;;1.00;;
64682;SDS011;51107;47.652;19.016;2022-09-12T06:14:13;1.27;;;0.98;;
64682;SDS011;51107;47.652;19.016;2022-09-12T06:16:43;0.80;;;0.73;;
64682;SDS011;51107;47.652;19.016;2022-09-12T06:19:13;0.73;;;0.70;;
64682;SDS011;51107;47.652;19.016;2022-09-12T06:21:46;1.02;;;0.82;;
64682;SDS011;51107;47.652;19.016;2022-09-12T06:24:16;0.80;;;0.73;;
64682;SDS011;51107;47.652;19.016;2022-09-12T06:26:46;1.27;;;0.95;;
64682;SDS011;51107;47.652;19.016;2022-09-12T06:29:16;0.60;;;0.60;;
64682;SDS011;51107;47.652;19.016;2022-09-12T06:31:46;0.60;;;0.60;;
64682;SDS011;51107;47.652;19.016;2022-09-12T06:34:14;1.98;;;0.85;;
64682;SDS011;51107;47.652;19.016;2022-09-12T06:36:44;1.62;;;1.05;;
64682;SDS011;51107;47.652;19.016;2022-09-12T06:39:21;1.52;;;0.60;;
64682;SDS011;51107;47.652;19.016;2022-09-12T06:41:50;0.93;;;0.70;;
64682;SDS011;51107;47.652;19.016;2022-09-12T06:44:28;0.90;;;0.82;;
64682;SDS011;51107;47.652;19.016;2022-09-12T06:46:56;4.45;;;1.12;;
64682;SDS011;51107;47.652;19.016;2022-09-12T06:49:25;0.90;;;0.80;;
64682;SDS011;51107;47.652;19.016;2022-09-12T06:51:53;0.68;;;0.65;;
64682;SDS011;51107;47.652;19.016;2022-09-12T06:54:22;1.02;;;0.90;;
64682;SDS011;51107;47.652;19.016;2022-09-12T06:56:50;1.20;;;0.77;;
64682;SDS011;51107;47.652;19.016;2022-09-12T06:59:18;0.77;;;0.77;;
64682;SDS011;51107;47.652;19.016;2022-09-12T07:01:47;1.27;;;0.95;;
64682;SDS011;51107;47.652;19.016;2022-09-12T07:04:15;0.80;;;0.70;;
64682;SDS011;51107;47.652;19.016;2022-09-12T07:06:43;0.77;;;0.73;;
64682;SDS011;51107;47.652;19.016;2022-09-12T07:09:12;1.35;;;1.00;;
64682;SDS011;51107;47.652;19.016;2022-09-12T07:11:45;1.20;;;0.95;;
64682;SDS011;51107;47.652;19.016;2022-09-12T07:14:13;0.60;;;0.60;;
64682;SDS011;51107;47.652;19.016;2022-09-12T07:16:42;1.00;;;0.93;;
64682;SDS011;51107;47.652;19.016;2022-09-12T07:19:11;0.90;;;0.80;;
64682;SDS011;51107;47.652;19.016;2022-09-12T07:21:39;1.37;;;1.02;;
64682;SDS011;51107;47.652;19.016;2022-09-12T07:24:08;3.90;;;1.30;;
64682;SDS011;51107;47.652;19.016;2022-09-12T07:26:38;1.00;;;0.70;;
64682;SDS011;51107;47.652;19.016;2022-09-12T07:29:08;0.60;;;0.60;;
64682;SDS011;51107;47.652;19.016;2022-09-12T07:32:02;10.90;;;0.93;;
64682;SDS011;51107;47.652;19.016;2022-09-12T07:34:32;1.02;;;0.80;;
64682;SDS011;51107;47.652;19.016;2022-09-12T07:37:02;1.25;;;0.85;;
64682;SDS011;51107;47.652;19.016;2022-09-12T07:39:30;1.30;;;0.95;;
64682;SDS011;51107;47.652;19.016;2022-09-12T07:41:58;1.12;;;1.00;;
64682;SDS011;51107;47.652;19.016;2022-09-12T07:44:27;1.42;;;0.88;;
64682;SDS011;51107;47.652;19.016;2022-09-12T07:46:56;1.45;;;0.98;;
64682;SDS011;51107;47.652;19.016;2022-09-12T07:49:24;0.70;;;0.60;;
64682;SDS011;51107;47.652;19.016;2022-09-12T07:51:52;1.40;;;0.77;;
64682;SDS011;51107;47.652;19.016;2022-09-12T07:54:21;0.40;;;0.40;;
64682;SDS011;51107;47.652;19.016;2022-09-12T07:56:49;1.37;;;0.62;;
64682;SDS011;51107;47.652;19.016;2022-09-12T07:59:18;1.27;;;0.77;;
64682;SDS011;51107;47.652;19.016;2022-09-12T08:02:10;0.62;;;0.62;;
64682;SDS011;51107;47.652;19.016;2022-09-12T08:04:45;0.80;;;0.60;;
64682;SDS011;51107;47.652;19.016;2022-09-12T08:07:14;0.90;;;0.62;;
64682;SDS011;51107;47.652;19.016;2022-09-12T08:09:45;1.58;;;1.15;;
64682;SDS011;51107;47.652;19.016;2022-09-12T08:12:14;1.40;;;0.82;;
64682;SDS011;51107;47.652;19.016;2022-09-12T08:14:43;1.02;;;0.88;;
64682;SDS011;51107;47.652;19.016;2022-09-12T08:17:12;0.60;;;0.60;;
64682;SDS011;51107;47.652;19.016;2022-09-12T08:19:41;1.17;;;0.90;;
64682;SDS011;51107;47.652;19.016;2022-09-12T08:22:09;12.00;;;1.25;;
64682;SDS011;51107;47.652;19.016;2022-09-12T08:24:38;0.98;;;0.85;;
64682;SDS011;51107;47.652;19.016;2022-09-12T08:27:07;3.95;;;0.82;;
64682;SDS011;51107;47.652;19.016;2022-09-12T08:29:35;1.87;;;1.02;;
64682;SDS011;51107;47.652;19.016;2022-09-12T08:32:04;1.40;;;0.85;;
64682;SDS011;51107;47.652;19.016;2022-09-12T08:34:32;0.95;;;0.77;;
64682;SDS011;51107;47.652;19.016;2022-09-12T08:37:00;1.10;;;0.82;;
64682;SDS011;51107;47.652;19.016;2022-09-12T08:39:29;1.00;;;0.90;;
64682;SDS011;51107;47.652;19.016;2022-09-12T08:41:59;0.60;;;0.60;;
64682;SDS011;51107;47.652;19.016;2022-09-12T08:44:50;1.12;;;1.02;;
64682;SDS011;51107;47.652;19.016;2022-09-12T08:50:05;1.27;;;0.90;;
64682;SDS011;51107;47.652;19.016;2022-09-12T08:58:22;0.70;;;0.65;;
64682;SDS011;51107;47.652;19.016;2022-09-12T09:03:47;1.62;;;1.00;;
64682;SDS011;51107;47.652;19.016;2022-09-12T09:15:06;0.60;;;0.60;;
64682;SDS011;51107;47.652;19.016;2022-09-12T09:18:44;1.00;;;0.80;;
64682;SDS011;51107;47.652;19.016;2022-09-12T09:20:58;0.57;;;0.47;;
64682;SDS011;51107;47.652;19.016;2022-09-12T09:23:42;0.60;;;0.60;;
64682;SDS011;51107;47.652;19.016;2022-09-12T09:26:20;0.70;;;0.70;;
64682;SDS011;51107;47.652;19.016;2022-09-12T09:28:56;1.17;;;0.47;;
64682;SDS011;51107;47.652;19.016;2022-09-12T09:31:34;0.70;;;0.70;;
64682;SDS011;51107;47.652;19.016;2022-09-12T09:34:25;0.68;;;0.68;;
64682;SDS011;51107;47.652;19.016;2022-09-12T09:43:15;0.60;;;0.60;;
64682;SDS011;51107;47.652;19.016;2022-09-12T09:45:52;1.23;;;0.90;;
64682;SDS011;51107;47.652;19.016;2022-09-12T09:48:33;0.60;;;0.50;;
64682;SDS011;51107;47.652;19.016;2022-09-12T09:51:04;0.68;;;0.60;;
64682;SDS011;51107;47.652;19.016;2022-09-12T09:53:47;1.42;;;0.80;;
64682;SDS011;51107;47.652;19.016;2022-09-12T10:01:55;0.90;;;0.70;;
64682;SDS011;51107;47.652;19.016;2022-09-12T10:04:32;0.98;;;0.70;;
64682;SDS011;51107;47.652;19.016;2022-09-12T10:07:16;1.20;;;0.82;;
64682;SDS011;51107;47.652;19.016;2022-09-12T10:12:39;0.73;;;0.50;;
64682;SDS011;51107;47.652;19.016;2022-09-12T10:15:18;0.70;;;0.55;;
64682;SDS011;51107;47.652;19.016;2022-09-12T10:17:53;0.80;;;0.70;;
64682;SDS011;51107;47.652;19.016;2022-09-12T10:25:57;1.10;;;0.70;;
64682;SDS011;51107;47.652;19.016;2022-09-12T10:31:11;0.70;;;0.70;;
64682;SDS011;51107;47.652;19.016;2022-09-12T10:33:44;1.17;;;0.85;;
64682;SDS011;51107;47.652;19.016;2022-09-12T10:36:19;1.42;;;0.80;;
64682;SDS011;51107;47.652;19.016;2022-09-12T10:38:51;0.60;;;0.60;;
64682;SDS011;51107;47.652;19.016;2022-09-12T10:41:23;1.50;;;0.68;;
64682;SDS011;51107;47.652;19.016;2022-09-12T10:43:52;1.37;;;0.62;;
64682;SDS011;51107;47.652;19.016;2022-09-12T10:46:34;3.30;;;0.93;;
64682;SDS011;51107;47.652;19.016;2022-09-12T10:49:22;0.98;;;0.68;;
64682;SDS011;51107;47.652;19.016;2022-09-12T10:51:54;0.70;;;0.43;;
64682;SDS011;51107;47.652;19.016;2022-09-12T10:54:24;1.52;;;0.50;;
64682;SDS011;51107;47.652;19.016;2022-09-12T11:07:47;0.55;;;0.52;;
64682;SDS011;51107;47.652;19.016;2022-09-12T11:21:18;0.90;;;0.70;;
64682;SDS011;51107;47.652;19.016;2022-09-12T11:29:49;0.50;;;0.50;;
64682;SDS011;51107;47.652;19.016;2022-09-12T11:38:41;0.55;;;0.47;;
64682;SDS011;51107;47.652;19.016;2022-09-12T11:45:51;0.70;;;0.65;;
64682;SDS011;51107;47.652;19.016;2022-09-12T11:51:20;1.50;;;0.95;;
64682;SDS011;51107;47.652;19.016;2022-09-12T11:53:59;2.03;;;0.70;;
64682;SDS011;51107;47.652;19.016;2022-09-12T11:56:32;0.85;;;0.73;;
64682;SDS011;51107;47.652;19.016;2022-09-12T11:59:03;0.80;;;0.60;;
64682;SDS011;51107;47.652;19.016;2022-09-12T12:01:44;1.65;;;0.73;;
64682;SDS011;51107;47.652;19.016;2022-09-12T12:04:19;0.47;;;0.45;;
64682;SDS011;51107;47.652;19.016;2022-09-12T12:07:00;0.60;;;0.55;;
64682;SDS011;51107;47.652;19.016;2022-09-12T12:09:32;0.77;;;0.50;;
64682;SDS011;51107;47.652;19.016;2022-09-12T12:12:03;0.55;;;0.55;;
64682;SDS011;51107;47.652;19.016;2022-09-12T12:14:43;0.60;;;0.60;;
64682;SDS011;51107;47.652;19.016;2022-09-12T12:17:16;0.50;;;0.50;;
64682;SDS011;51107;47.652;19.016;2022-09-12T12:19:47;0.70;;;0.50;;
64682;SDS011;51107;47.652;19.016;2022-09-12T12:22:33;0.73;;;0.62;;
64682;SDS011;51107;47.652;19.016;2022-09-12T12:25:07;1.02;;;0.55;;
64682;SDS011;51107;47.652;19.016;2022-09-12T12:27:57;0.52;;;0.50;;
64682;SDS011;51107;47.652;19.016;2022-09-12T12:35:41;1.20;;;0.82;;
64682;SDS011;51107;47.652;19.016;2022-09-12T12:38:29;0.43;;;0.43;;
64682;SDS011;51107;47.652;19.016;2022-09-12T12:43:46;0.88;;;0.50;;
64682;SDS011;51107;47.652;19.016;2022-09-12T12:46:17;0.80;;;0.60;;
64682;SDS011;51107;47.652;19.016;2022-09-12T12:48:48;0.73;;;0.68;;
64682;SDS011;51107;47.652;19.016;2022-09-12T12:51:39;1.00;;;0.70;;
64682;SDS011;51107;47.652;19.016;2022-09-12T13:00:04;0.40;;;0.40;;
64682;SDS011;51107;47.652;19.016;2022-09-12T13:02:40;0.68;;;0.68;;
64682;SDS011;51107;47.652;19.016;2022-09-12T13:05:24;0.80;;;0.70;;
64682;SDS011;51107;47.652;19.016;2022-09-12T13:07:58;0.47;;;0.45;;
64682;SDS011;51107;47.652;19.016;2022-09-12T13:10:33;0.50;;;0.50;;
64682;SDS011;51107;47.652;19.016;2022-09-12T13:13:03;0.50;;;0.50;;
64682;SDS011;51107;47.652;19.016;2022-09-12T13:18:09;0.77;;;0.68;;
64682;SDS011;51107;47.652;19.016;2022-09-12T13:24:02;0.45;;;0.45;;
64682;SDS011;51107;47.652;19.016;2022-09-12T13:26:34;0.57;;;0.50;;
64682;SDS011;51107;47.652;19.016;2022-09-12T13:29:15;1.90;;;0.50;;
64682;SDS011;51107;47.652;19.016;2022-09-12T13:31:47;0.50;;;0.50;;
64682;SDS011;51107;47.652;19.016;2022-09-12T13:34:25;0.65;;;0.62;;
64682;SDS011;51107;47.652;19.016;2022-09-12T13:39:46;0.55;;;0.50;;
64682;SDS011;51107;47.652;19.016;2022-09-12T13:45:18;0.82;;;0.40;;
64682;SDS011;51107;47.652;19.016;2022-09-12T13:47:55;0.30;;;0.30;;
64682;SDS011;51107;47.652;19.016;2022-09-12T13:50:27;0.37;;;0.37;;
64682;SDS011;51107;47.652;19.016;2022-09-12T13:53:00;0.40;;;0.40;;
64682;SDS011;51107;47.652;19.016;2022-09-12T13:55:33;0.40;;;0.40;;
64682;SDS011;51107;47.652;19.016;2022-09-12T13:58:29;0.30;;;0.30;;
64682;SDS011;51107;47.652;19.016;2022-09-12T14:01:09;0.32;;;0.32;;
64682;SDS011;51107;47.652;19.016;2022-09-12T14:06:41;0.40;;;0.40;;
64682;SDS011;51107;47.652;19.016;2022-09-12T14:12:39;0.35;;;0.35;;
64682;SDS011;51107;47.652;19.016;2022-09-12T14:15:13;0.30;;;0.28;;
64682;SDS011;51107;47.652;19.016;2022-09-12T14:17:48;0.50;;;0.32;;
64682;SDS011;51107;47.652;19.016;2022-09-12T14:22:50;0.40;;;0.40;;
64682;SDS011;51107;47.652;19.016;2022-09-12T14:25:20;0.37;;;0.30;;
64682;SDS011;51107;47.652;19.016;2022-09-12T14:27:51;0.25;;;0.25;;
64682;SDS011;51107;47.652;19.016;2022-09-12T14:33:17;0.50;;;0.50;;
64682;SDS011;51107;47.652;19.016;2022-09-12T14:35:48;0.40;;;0.40;;
64682;SDS011;51107;47.652;19.016;2022-09-12T14:38:23;0.28;;;0.28;;
64682;SDS011;51107;47.652;19.016;2022-09-12T14:40:59;0.40;;;0.30;;
64682;SDS011;51107;47.652;19.016;2022-09-12T14:43:30;0.75;;;0.43;;
64682;SDS011;51107;47.652;19.016;2022-09-12T14:46:23;0.22;;;0.22;;
64682;SDS011;51107;47.652;19.016;2022-09-12T14:49:39;0.20;;;0.20;;
64682;SDS011;51107;47.652;19.016;2022-09-12T14:51:54;0.57;;;0.50;;
64682;SDS011;51107;47.652;19.016;2022-09-12T14:56:59;0.85;;;0.50;;
64682;SDS011;51107;47.652;19.016;2022-09-12T14:59:30;0.50;;;0.50;;
64682;SDS011;51107;47.652;19.016;2022-09-12T15:04:49;0.40;;;0.35;;
64682;SDS011;51107;47.652;19.016;2022-09-12T15:07:35;0.30;;;0.30;;
64682;SDS011;51107;47.652;19.016;2022-09-12T15:13:14;0.30;;;0.30;;
64682;SDS011;51107;47.652;19.016;2022-09-12T15:15:44;0.40;;;0.30;;
64682;SDS011;51107;47.652;19.016;2022-09-12T15:18:17;0.85;;;0.50;;
64682;SDS011;51107;47.652;19.016;2022-09-12T15:20:47;0.60;;;0.30;;
64682;SDS011;51107;47.652;19.016;2022-09-12T15:23:19;0.45;;;0.40;;
64682;SDS011;51107;47.652;19.016;2022-09-12T15:26:16;0.70;;;0.47;;
64682;SDS011;51107;47.652;19.016;2022-09-12T15:28:54;0.40;;;0.40;;
64682;SDS011;51107;47.652;19.016;2022-09-12T15:31:29;0.88;;;0.40;;
64682;SDS011;51107;47.652;19.016;2022-09-12T15:33:59;0.40;;;0.40;;
64682;SDS011;51107;47.652;19.016;2022-09-12T15:36:30;0.22;;;0.22;;
64682;SDS011;51107;47.652;19.016;2022-09-12T15:38:59;0.45;;;0.35;;
64682;SDS011;51107;47.652;19.016;2022-09-12T15:41:28;0.20;;;0.20;;
64682;SDS011;51107;47.652;19.016;2022-09-12T15:43:59;0.40;;;0.37;;
64682;SDS011;51107;47.652;19.016;2022-09-12T15:46:27;0.30;;;0.30;;
64682;SDS011;51107;47.652;19.016;2022-09-12T15:48:56;0.50;;;0.40;;
64682;SDS011;51107;47.652;19.016;2022-09-12T15:51:24;0.32;;;0.32;;
64682;SDS011;51107;47.652;19.016;2022-09-12T15:53:53;0.62;;;0.40;;
64682;SDS011;51107;47.652;19.016;2022-09-12T15:56:21;0.20;;;0.20;;
64682;SDS011;51107;47.652;19.016;2022-09-12T15:58:51;0.52;;;0.50;;
64682;SDS011;51107;47.652;19.016;2022-09-12T16:01:27;0.37;;;0.37;;
64682;SDS011;51107;47.652;19.016;2022-09-12T16:03:56;0.50;;;0.50;;
64682;SDS011;51107;47.652;19.016;2022-09-12T16:06:25;0.25;;;0.25;;
64682;SDS011;51107;47.652;19.016;2022-09-12T16:08:54;0.28;;;0.25;;
64682;SDS011;51107;47.652;19.016;2022-09-12T16:11:25;0.40;;;0.30;;
64682;SDS011;51107;47.652;19.016;2022-09-12T16:13:54;0.60;;;0.35;;
64682;SDS011;51107;47.652;19.016;2022-09-12T16:16:24;0.43;;;0.43;;
64682;SDS011;51107;47.652;19.016;2022-09-12T16:18:52;0.60;;;0.50;;
64682;SDS011;51107;47.652;19.016;2022-09-12T16:21:20;0.40;;;0.40;;
64682;SDS011;51107;47.652;19.016;2022-09-12T16:23:49;0.88;;;0.60;;
64682;SDS011;51107;47.652;19.016;2022-09-12T16:26:17;0.40;;;0.30;;
64682;SDS011;51107;47.652;19.016;2022-09-12T16:28:46;1.77;;;0.60;;
64682;SDS011;51107;47.652;19.016;2022-09-12T16:31:14;0.20;;;0.20;;
64682;SDS011;51107;47.652;19.016;2022-09-12T16:33:43;0.30;;;0.30;;
64682;SDS011;51107;47.652;19.016;2022-09-12T16:36:12;0.62;;;0.60;;
64682;SDS011;51107;47.652;19.016;2022-09-12T16:38:45;0.32;;;0.32;;
64682;SDS011;51107;47.652;19.016;2022-09-12T16:41:18;0.50;;;0.40;;
64682;SDS011;51107;47.652;19.016;2022-09-12T16:43:51;0.65;;;0.40;;
64682;SDS011;51107;47.652;19.016;2022-09-12T16:46:21;0.30;;;0.30;;
64682;SDS011;51107;47.652;19.016;2022-09-12T16:48:52;0.32;;;0.32;;
64682;SDS011;51107;47.652;19.016;2022-09-12T16:51:23;0.30;;;0.30;;
64682;SDS011;51107;47.652;19.016;2022-09-12T16:53:53;0.30;;;0.28;;
64682;SDS011;51107;47.652;19.016;2022-09-12T16:56:22;0.20;;;0.20;;
64682;SDS011;51107;47.652;19.016;2022-09-12T16:58:50;0.40;;;0.40;;
64682;SDS011;51107;47.652;19.016;2022-09-12T17:01:20;2.92;;;0.40;;
64682;SDS011;51107;47.652;19.016;2022-09-12T17:03:54;1.17;;;0.40;;
64682;SDS011;51107;47.652;19.016;2022-09-12T17:06:25;0.40;;;0.40;;
64682;SDS011;51107;47.652;19.016;2022-09-12T17:08:56;0.20;;;0.20;;
64682;SDS011;51107;47.652;19.016;2022-09-12T17:11:35;0.53;;;0.40;;
64682;SDS011;51107;47.652;19.016;2022-09-12T17:14:05;0.37;;;0.37;;
64682;SDS011;51107;47.652;19.016;2022-09-12T17:16:39;0.60;;;0.37;;
64682;SDS011;51107;47.652;19.016;2022-09-12T17:19:13;0.70;;;0.50;;
64682;SDS011;51107;47.652;19.016;2022-09-12T17:21:44;0.30;;;0.30;;
64682;SDS011;51107;47.652;19.016;2022-09-12T17:24:17;0.25;;;0.25;;
64682;SDS011;51107;47.652;19.016;2022-09-12T17:26:46;0.75;;;0.57;;
64682;SDS011;51107;47.652;19.016;2022-09-12T17:29:14;0.40;;;0.40;;
64682;SDS011;51107;47.652;19.016;2022-09-12T17:31:43;0.60;;;0.40;;
64682;SDS011;51107;47.652;19.016;2022-09-12T17:34:12;0.50;;;0.40;;
64682;SDS011;51107;47.652;19.016;2022-09-12T17:36:41;0.68;;;0.50;;
64682;SDS011;51107;47.652;19.016;2022-09-12T17:39:11;1.10;;;0.50;;
64682;SDS011;51107;47.652;19.016;2022-09-12T17:41:40;0.50;;;0.50;;
64682;SDS011;51107;47.652;19.016;2022-09-12T17:44:10;0.50;;;0.50;;
64682;SDS011;51107;47.652;19.016;2022-09-12T17:46:40;2.20;;;0.57;;
64682;SDS011;51107;47.652;19.016;2022-09-12T17:49:13;0.37;;;0.37;;
64682;SDS011;51107;47.652;19.016;2022-09-12T17:51:42;0.30;;;0.30;;
64682;SDS011;51107;47.652;19.016;2022-09-12T17:54:12;1.40;;;0.37;;
64682;SDS011;51107;47.652;19.016;2022-09-12T17:56:43;0.40;;;0.40;;
64682;SDS011;51107;47.652;19.016;2022-09-12T17:59:13;0.32;;;0.32;;
64682;SDS011;51107;47.652;19.016;2022-09-12T18:01:44;0.20;;;0.20;;
64682;SDS011;51107;47.652;19.016;2022-09-12T18:04:32;0.70;;;0.47;;
64682;SDS011;51107;47.652;19.016;2022-09-12T18:07:00;0.60;;;0.45;;
64682;SDS011;51107;47.652;19.016;2022-09-12T18:09:28;0.43;;;0.40;;
64682;SDS011;51107;47.652;19.016;2022-09-12T18:11:57;0.98;;;0.60;;
64682;SDS011;51107;47.652;19.016;2022-09-12T18:14:26;2.47;;;0.73;;